createdAt,value
2023-02-12T00:01:21.961Z,100.00
2023-02-12T00:03:49.911Z,100.00
2023-02-12T00:06:17.173Z,100.00
2023-02-12T00:08:44.795Z,100.00
2023-02-12T00:11:16.212Z,100.00
2023-02-12T00:13:45.450Z,100.00
2023-02-12T00:16:16.087Z,100.00
2023-02-12T00:18:44.763Z,100.00
2023-02-12T00:21:14.131Z,100.00
2023-02-12T00:23:42.290Z,100.00
2023-02-12T00:26:12.773Z,100.00
2023-02-12T00:28:45.807Z,100.00
2023-02-12T00:31:19.861Z,100.00
2023-02-12T00:33:49.548Z,100.00
2023-02-12T00:36:20.154Z,100.00
2023-02-12T00:38:49.818Z,100.00
2023-02-12T00:41:17.241Z,100.00
2023-02-12T00:43:44.709Z,100.00
2023-02-12T00:46:12.340Z,100.00
2023-02-12T00:48:39.858Z,100.00
2023-02-12T00:51:08.747Z,100.00
2023-02-12T00:53:36.206Z,100.00
2023-02-12T00:56:04.090Z,100.00
2023-02-12T00:58:32.411Z,100.00
2023-02-12T01:01:00.540Z,100.00
2023-02-12T01:03:28.035Z,100.00
2023-02-12T01:05:55.760Z,100.00
2023-02-12T01:08:23.478Z,100.00
2023-02-12T01:10:59.405Z,100.00
2023-02-12T01:13:27.695Z,100.00
2023-02-12T01:16:12.886Z,100.00
2023-02-12T01:18:40.540Z,100.00
2023-02-12T01:21:32.687Z,100.00
2023-02-12T01:24:00.661Z,100.00
2023-02-12T01:26:30.992Z,100.00
2023-02-12T01:29:02.027Z,100.00
2023-02-12T01:31:33.310Z,100.00
2023-02-12T01:34:02.329Z,100.00
2023-02-12T01:36:30.586Z,100.00
2023-02-12T01:38:59.321Z,100.00
2023-02-12T01:41:33.123Z,100.00
2023-02-12T01:44:19.496Z,100.00
2023-02-12T01:46:49.483Z,100.00
2023-02-12T01:49:38.638Z,100.00
2023-02-12T01:52:08.957Z,100.00
2023-02-12T01:54:37.967Z,100.00
2023-02-12T01:57:07.516Z,100.00
2023-02-12T01:59:36.916Z,100.00
2023-02-12T02:02:06.364Z,100.00
2023-02-12T02:04:41.564Z,100.00
2023-02-12T02:07:12.440Z,100.00
2023-02-12T02:09:41.415Z,100.00
2023-02-12T02:12:28.444Z,100.00
2023-02-12T02:15:00.417Z,100.00
2023-02-12T02:17:49.674Z,100.00
2023-02-12T02:20:43.008Z,100.00
2023-02-12T02:23:25.631Z,100.00
2023-02-12T02:25:56.333Z,100.00
2023-02-12T02:28:35.902Z,100.00
2023-02-12T02:31:35.482Z,100.00
2023-02-12T02:34:22.583Z,100.00
2023-02-12T02:37:01.217Z,100.00
2023-02-12T02:39:54.851Z,100.00
2023-02-12T02:42:42.568Z,100.00
2023-02-12T02:45:12.851Z,100.00
2023-02-12T02:47:56.007Z,100.00
2023-02-12T02:50:26.432Z,100.00
2023-02-12T02:53:00.346Z,100.00
2023-02-12T02:55:33.310Z,100.00
2023-02-12T02:58:11.053Z,100.00
2023-02-12T03:00:43.845Z,100.00
2023-02-12T03:03:24.503Z,100.00
2023-02-12T03:05:56.686Z,100.00
2023-02-12T03:08:31.304Z,100.00
2023-02-12T03:11:08.259Z,100.00
2023-02-12T03:13:42.488Z,100.00
2023-02-12T03:16:16.576Z,100.00
2023-02-12T03:18:55.896Z,100.00
2023-02-12T03:21:29.560Z,99.76
2023-02-12T03:24:08.317Z,99.18
2023-02-12T03:26:44.960Z,99.46
2023-02-12T03:29:13.240Z,99.56
2023-02-12T03:31:59.795Z,100.00
2023-02-12T03:36:31.224Z,99.05
2023-02-12T03:39:13.404Z,99.29
2023-02-12T03:41:48.446Z,98.45
2023-02-12T03:44:48.599Z,96.96
2023-02-12T03:47:59.322Z,95.58
2023-02-12T03:50:49.347Z,95.25
2023-02-12T03:53:20.350Z,95.54
2023-02-12T03:55:56.712Z,95.05
2023-02-12T03:58:28.669Z,95.73
2023-02-12T04:00:57.342Z,96.73
2023-02-12T04:03:28.533Z,97.10
2023-02-12T04:05:56.580Z,97.18
2023-02-12T04:08:30.627Z,97.17
2023-02-12T04:11:08.517Z,98.26
2023-02-12T04:13:51.747Z,98.91
2023-02-12T04:16:38.215Z,98.32
2023-02-12T04:19:07.280Z,97.46
2023-02-12T04:22:11.626Z,97.02
2023-02-12T04:24:51.305Z,96.38
2023-02-12T04:27:35.466Z,95.29
2023-02-12T04:30:32.630Z,94.54
2023-02-12T04:33:15.223Z,93.84
2023-02-12T04:36:19.250Z,93.82
2023-02-12T04:38:57.980Z,92.97
2023-02-12T04:41:27.860Z,92.44
2023-02-12T04:43:57.390Z,92.36
2023-02-12T04:46:25.542Z,92.65
2023-02-12T04:49:00.225Z,92.50
2023-02-12T04:51:27.778Z,92.84
2023-02-12T04:53:55.672Z,93.18
2023-02-12T04:56:24.048Z,93.64
2023-02-12T04:58:51.764Z,93.39
2023-02-12T05:01:19.500Z,93.64
2023-02-12T05:03:48.211Z,93.77
2023-02-12T05:06:16.066Z,94.30
2023-02-12T05:08:44.160Z,94.62
2023-02-12T05:11:12.825Z,94.29
2023-02-12T05:13:42.480Z,95.13
2023-02-12T05:16:10.249Z,95.26
2023-02-12T05:18:38.069Z,95.83
2023-02-12T05:21:06.207Z,96.22
2023-02-12T05:23:37.795Z,96.28
2023-02-12T05:26:13.815Z,96.47
2023-02-12T05:28:42.161Z,96.62
2023-02-12T05:31:15.992Z,96.47
2023-02-12T05:33:45.518Z,95.79
2023-02-12T05:36:17.873Z,95.21
2023-02-12T05:38:45.904Z,94.97
2023-02-12T05:41:15.978Z,94.78
2023-02-12T05:43:47.806Z,92.71
2023-02-12T05:46:19.374Z,92.87
2023-02-12T05:48:47.331Z,90.38
2023-02-12T05:51:18.235Z,90.73
2023-02-12T05:53:45.912Z,90.07
2023-02-12T05:56:15.043Z,89.91
2023-02-12T05:58:45.804Z,88.59
2023-02-12T06:01:15.202Z,87.53
2023-02-12T06:03:43.645Z,85.80
2023-02-12T06:06:11.872Z,83.03
2023-02-12T06:08:40.222Z,83.17
2023-02-12T06:11:11.781Z,82.11
2023-02-12T06:13:39.594Z,81.84
2023-02-12T06:16:08.343Z,81.60
2023-02-12T06:18:37.926Z,80.23
2023-02-12T06:21:05.847Z,79.20
2023-02-12T06:23:33.512Z,79.17
2023-02-12T06:26:01.343Z,77.19
2023-02-12T06:28:29.057Z,75.32
2023-02-12T06:30:57.125Z,74.68
2023-02-12T06:33:25.233Z,74.11
2023-02-12T06:35:54.282Z,73.31
2023-02-12T06:38:21.818Z,73.92
2023-02-12T06:40:50.642Z,74.29
2023-02-12T06:43:18.192Z,74.14
2023-02-12T06:45:45.878Z,72.49
2023-02-12T06:48:13.529Z,72.40
2023-02-12T06:50:41.319Z,71.55
2023-02-12T06:53:09.156Z,69.56
2023-02-12T06:55:38.550Z,68.76
2023-02-12T06:58:05.880Z,70.11
2023-02-12T07:00:33.507Z,68.25
2023-02-12T07:03:02.274Z,67.54
2023-02-12T07:05:31.121Z,67.61
2023-02-12T07:07:58.879Z,66.29
2023-02-12T07:10:25.822Z,65.30
2023-02-12T07:12:53.291Z,64.53
2023-02-12T07:15:21.294Z,65.43
2023-02-12T07:17:50.196Z,66.39
2023-02-12T07:20:17.525Z,67.11
2023-02-12T07:22:46.709Z,65.93
2023-02-12T07:25:14.069Z,65.95
2023-02-12T07:27:42.748Z,64.38
2023-02-12T07:30:11.642Z,63.87
2023-02-12T07:32:38.988Z,62.52
2023-02-12T07:35:06.789Z,62.18
2023-02-12T07:37:34.952Z,59.87
2023-02-12T07:40:02.711Z,62.25
2023-02-12T07:42:31.069Z,58.03
2023-02-12T07:44:59.260Z,56.64
2023-02-12T07:47:26.734Z,56.79
2023-02-12T07:49:54.517Z,56.36
2023-02-12T07:52:22.027Z,56.11
2023-02-12T07:54:50.069Z,55.23
2023-02-12T07:57:17.582Z,55.12
2023-02-12T07:59:44.976Z,56.37
2023-02-12T08:02:12.717Z,54.87
2023-02-12T08:04:40.273Z,54.17
2023-02-12T08:07:07.698Z,53.38
2023-02-12T08:09:35.094Z,52.45
2023-02-12T08:12:02.610Z,52.41
2023-02-12T08:14:30.350Z,51.17
2023-02-12T08:16:59.336Z,51.05
2023-02-12T08:19:27.080Z,51.12
2023-02-12T08:21:55.994Z,50.88
2023-02-12T08:24:25.117Z,50.65
2023-02-12T08:26:53.030Z,50.88
2023-02-12T08:29:26.506Z,49.54
2023-02-12T08:31:59.973Z,47.86
2023-02-12T08:34:30.931Z,47.86
2023-02-12T08:36:58.929Z,46.38
2023-02-12T08:39:29.140Z,45.96
2023-02-12T08:41:57.935Z,47.58
2023-02-12T08:44:25.739Z,44.83
2023-02-12T08:46:55.794Z,43.30
2023-02-12T08:49:26.674Z,45.23
2023-02-12T08:51:56.377Z,45.15
2023-02-12T08:54:28.086Z,44.43
2023-02-12T08:57:00.701Z,41.51
2023-02-12T08:59:29.012Z,42.39
2023-02-12T09:01:56.249Z,42.69
2023-02-12T09:04:26.344Z,41.31
2023-02-12T09:06:56.253Z,42.48
2023-02-12T09:09:24.147Z,39.06
2023-02-12T09:11:53.167Z,39.36
2023-02-12T09:14:25.019Z,40.54
2023-02-12T09:16:55.161Z,40.41
2023-02-12T09:19:23.740Z,40.89
2023-02-12T09:21:55.542Z,39.88
2023-02-12T09:24:24.386Z,40.56
2023-02-12T09:26:52.173Z,40.52
2023-02-12T09:29:20.036Z,39.73
2023-02-12T09:31:47.701Z,37.67
2023-02-12T09:34:16.030Z,37.91
2023-02-12T09:36:46.600Z,36.86
2023-02-12T09:39:14.886Z,37.48
2023-02-12T09:41:55.315Z,35.96
2023-02-12T09:44:42.588Z,37.37
2023-02-12T09:47:26.844Z,35.89
2023-02-12T09:50:34.259Z,36.45
2023-02-12T09:53:06.342Z,36.08
2023-02-12T09:55:36.108Z,36.06
2023-02-12T09:58:13.779Z,33.73
2023-02-12T10:00:41.898Z,32.99
2023-02-12T10:03:16.551Z,33.35
2023-02-12T10:05:50.602Z,32.60
2023-02-12T10:08:45.452Z,32.92
2023-02-12T10:11:24.409Z,33.13
2023-02-12T10:14:19.126Z,33.21
2023-02-12T10:16:49.922Z,33.71
2023-02-12T10:19:47.704Z,34.17
2023-02-12T10:22:24.404Z,32.83
2023-02-12T10:25:07.164Z,32.89
2023-02-12T10:27:46.469Z,33.09
2023-02-12T10:30:34.629Z,33.56
2023-02-12T10:33:35.613Z,33.09
2023-02-12T10:36:36.431Z,33.49
2023-02-12T10:39:22.606Z,33.96
2023-02-12T10:42:02.837Z,33.08
2023-02-12T10:44:33.372Z,32.93
2023-02-12T10:47:05.312Z,33.00
2023-02-12T10:49:33.371Z,31.21
2023-02-12T10:52:16.731Z,31.13
2023-02-12T10:54:52.401Z,30.88
2023-02-12T10:57:32.006Z,30.08
2023-02-12T11:00:37.260Z,30.05
2023-02-12T11:03:23.082Z,30.51
2023-02-12T11:05:54.848Z,30.60
2023-02-12T11:08:28.841Z,31.14
2023-02-12T11:10:57.573Z,31.19
2023-02-12T11:13:28.550Z,30.51
2023-02-12T11:15:56.079Z,30.62
2023-02-12T11:18:36.982Z,30.68
2023-02-12T11:21:11.780Z,30.36
2023-02-12T11:23:45.002Z,29.51
2023-02-12T11:26:28.149Z,29.59
2023-02-12T11:29:01.521Z,29.60
2023-02-12T11:31:34.237Z,30.10
2023-02-12T11:34:20.028Z,30.00
2023-02-12T11:36:52.745Z,28.83
2023-02-12T11:39:25.103Z,28.56
2023-02-12T11:42:07.521Z,28.70
2023-02-12T11:44:40.796Z,29.42
2023-02-12T11:47:20.517Z,29.19
2023-02-12T11:49:55.874Z,29.48
2023-02-12T11:52:34.289Z,29.09
2023-02-12T11:55:07.875Z,28.52
2023-02-12T11:57:36.685Z,28.92
2023-02-12T12:00:18.379Z,28.24
2023-02-12T12:02:56.404Z,28.64
2023-02-12T12:05:30.915Z,29.63
2023-02-12T12:08:02.705Z,29.18
2023-02-12T12:10:46.562Z,28.82
2023-02-12T12:13:25.838Z,28.92
2023-02-12T12:16:23.770Z,28.66
2023-02-12T12:19:23.156Z,29.02
2023-02-12T12:22:04.007Z,29.15
2023-02-12T12:25:08.985Z,29.63
2023-02-12T12:28:09.450Z,29.48
2023-02-12T12:31:12.684Z,30.51
2023-02-12T12:34:05.444Z,30.65
2023-02-12T12:36:54.209Z,32.74
2023-02-12T12:39:32.164Z,34.08
2023-02-12T12:42:18.040Z,35.86
2023-02-12T12:44:52.800Z,37.90
2023-02-12T12:47:23.299Z,38.18
2023-02-12T12:49:56.871Z,38.92
2023-02-12T12:52:45.628Z,38.75
2023-02-12T12:55:51.260Z,40.47
2023-02-12T12:58:27.521Z,42.11
2023-02-12T13:01:35.131Z,43.64
2023-02-12T13:04:37.135Z,44.99
2023-02-12T13:07:38.976Z,45.12
2023-02-12T13:10:28.553Z,46.15
2023-02-12T13:13:05.969Z,46.79
2023-02-12T13:15:55.184Z,46.90
2023-02-12T13:18:41.404Z,47.33
2023-02-12T13:21:15.012Z,44.96
2023-02-12T13:23:59.781Z,43.70
2023-02-12T13:26:48.369Z,43.19
2023-02-12T13:29:21.707Z,43.60
2023-02-12T13:31:56.805Z,43.17
2023-02-12T13:34:30.127Z,43.33
2023-02-12T13:37:01.190Z,44.73
2023-02-12T13:39:45.722Z,44.81
2023-02-12T13:42:51.813Z,46.57
2023-02-12T13:45:41.210Z,46.83
2023-02-12T13:48:27.193Z,46.51
2023-02-12T13:51:06.393Z,47.49
2023-02-12T13:53:52.054Z,47.77
2023-02-12T13:56:41.956Z,47.54
2023-02-12T13:59:32.753Z,47.36
2023-02-12T14:02:05.187Z,47.57
2023-02-12T14:05:21.395Z,48.17
2023-02-12T14:07:58.648Z,48.12
2023-02-12T14:10:40.772Z,48.61
2023-02-12T14:13:18.158Z,48.60
2023-02-12T14:15:55.587Z,48.85
2023-02-12T14:18:27.897Z,49.00
2023-02-12T14:21:13.675Z,48.42
2023-02-12T14:23:43.521Z,49.36
2023-02-12T14:26:20.722Z,49.06
2023-02-12T14:29:00.808Z,48.86
2023-02-12T14:31:34.878Z,48.79
2023-02-12T14:34:08.820Z,48.81
2023-02-12T14:36:42.490Z,48.99
2023-02-12T14:39:25.594Z,48.54
2023-02-12T14:41:53.762Z,48.38
2023-02-12T14:44:28.671Z,48.33
2023-02-12T14:47:09.114Z,48.69
2023-02-12T14:49:50.034Z,48.69
2023-02-12T14:52:27.027Z,47.87
2023-02-12T14:55:06.963Z,48.65
2023-02-12T14:57:43.115Z,48.57
2023-02-12T15:00:42.025Z,49.51
2023-02-12T15:03:13.308Z,49.78
2023-02-12T15:05:44.996Z,50.72
2023-02-12T15:08:38.003Z,51.59
2023-02-12T15:11:15.444Z,51.20
2023-02-12T15:13:49.011Z,51.77
2023-02-12T15:16:43.534Z,52.22
2023-02-12T15:19:46.102Z,52.75
2023-02-12T15:22:28.704Z,53.47
2023-02-12T15:25:18.176Z,53.93
2023-02-12T15:27:48.696Z,54.37
2023-02-12T15:30:26.124Z,54.00
2023-02-12T15:32:57.384Z,54.13
2023-02-12T15:35:32.205Z,55.59
2023-02-12T15:38:01.328Z,56.21
2023-02-12T15:40:32.989Z,56.81
2023-02-12T15:43:20.845Z,57.45
2023-02-12T15:45:54.118Z,57.48
2023-02-12T15:48:24.237Z,58.26
2023-02-12T15:51:20.604Z,58.06
2023-02-12T15:53:48.303Z,57.81
2023-02-12T15:56:19.769Z,59.06
2023-02-12T15:58:50.223Z,59.14
2023-02-12T16:01:25.071Z,59.40
2023-02-12T16:03:56.144Z,59.21
2023-02-12T16:06:27.440Z,59.40
2023-02-12T16:09:27.641Z,59.51
2023-02-12T16:11:57.662Z,59.70
2023-02-12T16:14:43.627Z,59.44
2023-02-12T16:17:26.391Z,59.71
2023-02-12T16:20:02.308Z,60.33
2023-02-12T16:22:34.575Z,59.72
2023-02-12T16:25:02.989Z,59.47
2023-02-12T16:27:33.787Z,59.76
2023-02-12T16:30:09.031Z,59.20
2023-02-12T16:32:36.307Z,60.12
2023-02-12T16:35:13.995Z,59.87
2023-02-12T16:37:50.012Z,59.68
2023-02-12T16:40:30.923Z,60.19
2023-02-12T16:43:22.377Z,60.02
2023-02-12T16:45:51.543Z,60.05
2023-02-12T16:48:23.643Z,60.23
2023-02-12T16:50:58.339Z,60.36
2023-02-12T16:53:27.871Z,61.33
2023-02-12T16:55:55.705Z,61.16
2023-02-12T16:58:23.631Z,60.97
2023-02-12T17:00:50.906Z,61.45
2023-02-12T17:03:19.644Z,61.27
2023-02-12T17:05:47.685Z,61.52
2023-02-12T17:08:18.096Z,61.21
2023-02-12T17:10:45.463Z,61.70
2023-02-12T17:13:12.947Z,61.85
2023-02-12T17:15:51.096Z,62.63
2023-02-12T17:18:18.666Z,64.45
2023-02-12T17:20:54.895Z,63.85
2023-02-12T17:23:25.019Z,63.80
2023-02-12T17:25:52.656Z,63.86
2023-02-12T17:28:20.067Z,64.04
2023-02-12T17:30:47.381Z,63.40
2023-02-12T17:33:16.410Z,63.60
2023-02-12T17:35:43.485Z,63.13
2023-02-12T17:38:11.054Z,62.89
2023-02-12T17:40:39.493Z,62.64
2023-02-12T17:43:07.184Z,62.83
2023-02-12T17:45:34.900Z,62.91
2023-02-12T17:48:02.514Z,62.79
2023-02-12T17:50:29.654Z,63.61
2023-02-12T17:52:57.187Z,63.52
2023-02-12T17:55:24.534Z,63.36
2023-02-12T17:57:56.287Z,62.96
2023-02-12T18:00:24.836Z,63.56
2023-02-12T18:02:53.178Z,63.74
2023-02-12T18:05:20.904Z,62.99
2023-02-12T18:07:48.588Z,63.19
2023-02-12T18:10:16.371Z,63.65
2023-02-12T18:12:43.490Z,63.47
2023-02-12T18:15:11.579Z,63.10
2023-02-12T18:17:42.716Z,63.72
2023-02-12T18:20:11.758Z,63.24
2023-02-12T18:22:39.243Z,63.67
2023-02-12T18:25:07.282Z,63.78
2023-02-12T18:27:35.093Z,63.61
2023-02-12T18:30:02.902Z,64.04
2023-02-12T18:32:30.213Z,63.88
2023-02-12T18:35:02.589Z,63.52
2023-02-12T18:37:29.952Z,64.09
2023-02-12T18:39:57.652Z,64.19
2023-02-12T18:42:24.882Z,64.47
2023-02-12T18:44:53.240Z,64.81
2023-02-12T18:47:21.621Z,64.67
2023-02-12T18:49:48.787Z,64.65
2023-02-12T18:52:17.748Z,64.75
2023-02-12T18:54:44.954Z,64.76
2023-02-12T18:57:12.641Z,64.42
2023-02-12T18:59:39.857Z,65.45
2023-02-12T19:02:08.634Z,66.02
2023-02-12T19:04:35.956Z,65.44
2023-02-12T19:07:03.481Z,65.49
2023-02-12T19:09:30.765Z,66.52
2023-02-12T19:11:59.844Z,66.31
2023-02-12T19:14:28.185Z,66.23
2023-02-12T19:16:55.730Z,67.09
2023-02-12T19:19:23.500Z,67.04
2023-02-12T19:21:51.442Z,67.25
2023-02-12T19:24:21.475Z,67.56
2023-02-12T19:26:52.914Z,68.12
2023-02-12T19:29:20.551Z,67.76
2023-02-12T19:31:51.449Z,67.04
2023-02-12T19:34:21.846Z,67.00
2023-02-12T19:36:50.139Z,67.45
2023-02-12T19:39:20.837Z,66.85
2023-02-12T19:41:48.969Z,66.63
2023-02-12T19:44:22.346Z,66.46
2023-02-12T19:46:50.670Z,65.83
2023-02-12T19:49:21.127Z,65.47
2023-02-12T19:51:49.288Z,65.59
2023-02-12T19:54:18.202Z,65.22
2023-02-12T19:56:46.483Z,64.85
2023-02-12T19:59:17.555Z,64.33
2023-02-12T20:01:46.291Z,64.47
2023-02-12T20:04:16.008Z,64.29
2023-02-12T20:06:49.266Z,64.47
2023-02-12T20:09:17.162Z,63.96
2023-02-12T20:11:44.699Z,64.20
2023-02-12T20:14:14.585Z,64.30
2023-02-12T20:16:44.195Z,64.34
2023-02-12T20:19:27.506Z,63.75
2023-02-12T20:21:56.992Z,64.23
2023-02-12T20:24:26.673Z,65.11
2023-02-12T20:26:55.295Z,64.75
2023-02-12T20:29:22.737Z,65.05
2023-02-12T20:31:50.906Z,65.41
2023-02-12T20:34:20.425Z,65.83
2023-02-12T20:36:48.425Z,66.54
2023-02-12T20:39:17.885Z,65.90
2023-02-12T20:41:45.525Z,68.57
2023-02-12T20:44:16.282Z,68.28
2023-02-12T20:46:48.501Z,68.82
2023-02-12T20:49:17.597Z,70.27
2023-02-12T20:51:46.211Z,69.07
2023-02-12T20:54:13.567Z,68.37
2023-02-12T20:56:40.685Z,68.87
2023-02-12T20:59:08.727Z,69.21
2023-02-12T21:01:38.872Z,69.26
2023-02-12T21:04:17.148Z,69.78
2023-02-12T21:06:45.057Z,69.29
2023-02-12T21:09:14.398Z,69.18
2023-02-12T21:11:45.381Z,69.11
2023-02-12T21:14:23.597Z,69.50
2023-02-12T21:16:53.435Z,69.68
2023-02-12T21:19:21.529Z,70.21
2023-02-12T21:21:48.693Z,70.41
2023-02-12T21:24:19.151Z,71.01
2023-02-12T21:26:46.867Z,72.60
2023-02-12T21:29:14.497Z,72.38
2023-02-12T21:31:44.458Z,74.57
2023-02-12T21:34:15.384Z,76.10
2023-02-12T21:36:45.552Z,77.54
2023-02-12T21:39:24.529Z,77.59
2023-02-12T21:41:55.087Z,78.08
2023-02-12T21:44:23.925Z,78.44
2023-02-12T21:46:51.639Z,78.65
2023-02-12T21:49:25.112Z,79.32
2023-02-12T21:52:02.720Z,81.66
2023-02-12T21:54:30.776Z,82.06
2023-02-12T21:56:59.079Z,82.07
2023-02-12T21:59:27.774Z,81.67
2023-02-12T22:01:58.808Z,81.10
2023-02-12T22:04:26.587Z,80.27
2023-02-12T22:06:54.610Z,79.73
2023-02-12T22:09:23.346Z,79.06
2023-02-12T22:11:52.853Z,78.84
2023-02-12T22:14:21.910Z,78.27
2023-02-12T22:16:49.594Z,78.21
2023-02-12T22:19:17.043Z,78.20
2023-02-12T22:21:44.626Z,78.45
2023-02-12T22:24:16.617Z,79.39
2023-02-12T22:26:44.975Z,78.33
2023-02-12T22:29:15.023Z,78.02
2023-02-12T22:31:44.310Z,77.59
2023-02-12T22:34:17.171Z,77.25
2023-02-12T22:36:46.431Z,77.18
2023-02-12T22:39:14.401Z,76.72
2023-02-12T22:41:42.906Z,76.38
2023-02-12T22:44:12.024Z,77.11
2023-02-12T22:46:39.597Z,77.89
2023-02-12T22:49:06.808Z,77.96
2023-02-12T22:51:36.091Z,78.32
2023-02-12T22:54:03.735Z,79.20
2023-02-12T22:56:31.163Z,79.50
2023-02-12T22:59:00.911Z,81.29
2023-02-12T23:01:29.746Z,82.33
2023-02-12T23:03:57.159Z,82.11
2023-02-12T23:06:30.361Z,82.18
2023-02-12T23:09:03.459Z,82.41
2023-02-12T23:11:32.843Z,83.01
2023-02-12T23:14:00.796Z,82.10
2023-02-12T23:16:29.006Z,81.33
2023-02-12T23:18:57.416Z,80.96
2023-02-12T23:21:26.826Z,80.15
2023-02-12T23:23:54.384Z,79.78
2023-02-12T23:26:23.048Z,79.26
2023-02-12T23:28:50.734Z,78.77
2023-02-12T23:31:18.622Z,78.08
2023-02-12T23:33:46.180Z,77.73
2023-02-12T23:36:14.014Z,77.50
2023-02-12T23:38:41.465Z,77.31
2023-02-12T23:41:09.105Z,76.74
2023-02-12T23:43:36.262Z,76.91
2023-02-12T23:46:04.392Z,76.34
2023-02-12T23:48:31.717Z,76.54
2023-02-12T23:50:59.721Z,76.26
2023-02-12T23:53:27.143Z,76.80
2023-02-12T23:55:54.489Z,76.57
2023-02-12T23:58:21.576Z,76.61
